sensor_id;sensor_type;location;lat;lon;timestamp;temperature;humidity
52543;DHT22;38449;52.696;6.186;2023-05-16T00:00:14;9.30;99.90
52543;DHT22;38449;52.696;6.186;2023-05-16T00:02:40;9.30;99.90
52543;DHT22;38449;52.696;6.186;2023-05-16T00:05:07;9.30;99.90
52543;DHT22;38449;52.696;6.186;2023-05-16T00:07:35;9.30;99.90
52543;DHT22;38449;52.696;6.186;2023-05-16T00:10:01;9.20;99.90
52543;DHT22;38449;52.696;6.186;2023-05-16T00:12:28;9.20;99.90
52543;DHT22;38449;52.696;6.186;2023-05-16T00:14:55;9.20;99.90
52543;DHT22;38449;52.696;6.186;2023-05-16T00:17:22;9.20;99.90
52543;DHT22;38449;52.696;6.186;2023-05-16T00:19:48;9.10;99.90
52543;DHT22;38449;52.696;6.186;2023-05-16T00:22:14;9.10;99.90
52543;DHT22;38449;52.696;6.186;2023-05-16T00:24:41;9.10;99.90
52543;DHT22;38449;52.696;6.186;2023-05-16T00:27:07;9.00;99.90
52543;DHT22;38449;52.696;6.186;2023-05-16T00:29:34;9.10;99.90
52543;DHT22;38449;52.696;6.186;2023-05-16T00:32:00;9.00;99.90
52543;DHT22;38449;52.696;6.186;2023-05-16T00:34:27;9.00;99.90
52543;DHT22;38449;52.696;6.186;2023-05-16T00:36:53;9.00;99.90
52543;DHT22;38449;52.696;6.186;2023-05-16T00:39:19;8.90;99.90
52543;DHT22;38449;52.696;6.186;2023-05-16T00:41:46;8.90;99.90
52543;DHT22;38449;52.696;6.186;2023-05-16T00:44:12;8.80;99.90
52543;DHT22;38449;52.696;6.186;2023-05-16T00:46:38;8.70;99.90
52543;DHT22;38449;52.696;6.186;2023-05-16T00:49:05;8.70;99.90
52543;DHT22;38449;52.696;6.186;2023-05-16T00:51:32;8.70;99.90
52543;DHT22;38449;52.696;6.186;2023-05-16T00:53:59;8.70;99.90
52543;DHT22;38449;52.696;6.186;2023-05-16T00:56:25;8.60;99.90
52543;DHT22;38449;52.696;6.186;2023-05-16T00:58:52;8.50;99.90
52543;DHT22;38449;52.696;6.186;2023-05-16T01:01:19;8.40;99.90
52543;DHT22;38449;52.696;6.186;2023-05-16T01:03:48;8.40;99.90
52543;DHT22;38449;52.696;6.186;2023-05-16T01:06:16;8.40;99.90
52543;DHT22;38449;52.696;6.186;2023-05-16T01:08:42;8.30;99.90
52543;DHT22;38449;52.696;6.186;2023-05-16T01:14:24;8.30;99.90
52543;DHT22;38449;52.696;6.186;2023-05-16T01:17:04;8.20;99.90
52543;DHT22;38449;52.696;6.186;2023-05-16T01:22:45;8.10;99.90
52543;DHT22;38449;52.696;6.186;2023-05-16T01:27:58;8.10;99.90
52543;DHT22;38449;52.696;6.186;2023-05-16T01:30:26;8.00;99.90
52543;DHT22;38449;52.696;6.186;2023-05-16T01:32:52;8.00;99.90
52543;DHT22;38449;52.696;6.186;2023-05-16T01:35:23;8.10;99.90
52543;DHT22;38449;52.696;6.186;2023-05-16T01:38:28;8.00;99.90
52543;DHT22;38449;52.696;6.186;2023-05-16T01:41:20;7.90;99.90
52543;DHT22;38449;52.696;6.186;2023-05-16T01:43:51;7.90;99.90
52543;DHT22;38449;52.696;6.186;2023-05-16T01:46:26;8.00;99.90
52543;DHT22;38449;52.696;6.186;2023-05-16T01:49:05;7.90;99.90
52543;DHT22;38449;52.696;6.186;2023-05-16T01:51:35;7.90;99.90
52543;DHT22;38449;52.696;6.186;2023-05-16T01:54:05;7.90;99.90
52543;DHT22;38449;52.696;6.186;2023-05-16T01:56:36;7.90;99.90
52543;DHT22;38449;52.696;6.186;2023-05-16T01:59:03;7.90;99.90
52543;DHT22;38449;52.696;6.186;2023-05-16T02:01:29;7.90;99.90
52543;DHT22;38449;52.696;6.186;2023-05-16T02:03:57;7.80;99.90
52543;DHT22;38449;52.696;6.186;2023-05-16T02:06:23;7.80;99.90
52543;DHT22;38449;52.696;6.186;2023-05-16T02:08:51;7.80;99.90
52543;DHT22;38449;52.696;6.186;2023-05-16T02:11:23;7.80;99.90
52543;DHT22;38449;52.696;6.186;2023-05-16T02:13:49;7.80;99.90
52543;DHT22;38449;52.696;6.186;2023-05-16T02:16:16;7.70;99.90
52543;DHT22;38449;52.696;6.186;2023-05-16T02:18:42;7.70;99.90
52543;DHT22;38449;52.696;6.186;2023-05-16T02:21:10;7.70;99.90
52543;DHT22;38449;52.696;6.186;2023-05-16T02:23:36;7.70;99.90
52543;DHT22;38449;52.696;6.186;2023-05-16T02:26:02;7.70;99.90
52543;DHT22;38449;52.696;6.186;2023-05-16T02:28:29;7.70;99.90
52543;DHT22;38449;52.696;6.186;2023-05-16T02:31:00;7.70;99.90
52543;DHT22;38449;52.696;6.186;2023-05-16T02:33:27;7.60;99.90
52543;DHT22;38449;52.696;6.186;2023-05-16T02:35:56;7.60;99.90
52543;DHT22;38449;52.696;6.186;2023-05-16T02:38:24;7.60;99.90
52543;DHT22;38449;52.696;6.186;2023-05-16T02:40:50;7.60;99.90
52543;DHT22;38449;52.696;6.186;2023-05-16T02:43:17;7.60;99.90
52543;DHT22;38449;52.696;6.186;2023-05-16T02:45:43;7.60;99.90
52543;DHT22;38449;52.696;6.186;2023-05-16T02:48:10;7.60;99.90
52543;DHT22;38449;52.696;6.186;2023-05-16T02:50:37;7.50;99.90
52543;DHT22;38449;52.696;6.186;2023-05-16T02:53:05;7.50;99.90
52543;DHT22;38449;52.696;6.186;2023-05-16T02:55:31;7.50;99.90
52543;DHT22;38449;52.696;6.186;2023-05-16T02:57:57;7.50;99.90
52543;DHT22;38449;52.696;6.186;2023-05-16T03:00:24;7.60;99.90
52543;DHT22;38449;52.696;6.186;2023-05-16T03:02:50;7.60;99.90
52543;DHT22;38449;52.696;6.186;2023-05-16T03:05:16;7.60;99.90
52543;DHT22;38449;52.696;6.186;2023-05-16T03:07:43;7.60;99.90
52543;DHT22;38449;52.696;6.186;2023-05-16T03:10:09;7.60;99.90
52543;DHT22;38449;52.696;6.186;2023-05-16T03:12:36;7.70;99.90
52543;DHT22;38449;52.696;6.186;2023-05-16T03:15:03;7.70;99.90
52543;DHT22;38449;52.696;6.186;2023-05-16T03:17:29;7.70;99.90
52543;DHT22;38449;52.696;6.186;2023-05-16T03:19:55;7.60;99.90
52543;DHT22;38449;52.696;6.186;2023-05-16T03:22:25;7.60;99.90
52543;DHT22;38449;52.696;6.186;2023-05-16T03:24:51;7.70;99.90
52543;DHT22;38449;52.696;6.186;2023-05-16T03:27:17;7.60;99.90
52543;DHT22;38449;52.696;6.186;2023-05-16T03:29:43;7.60;99.90
52543;DHT22;38449;52.696;6.186;2023-05-16T03:32:10;7.60;99.90
52543;DHT22;38449;52.696;6.186;2023-05-16T03:34:36;7.70;99.90
52543;DHT22;38449;52.696;6.186;2023-05-16T03:37:03;7.60;99.90
52543;DHT22;38449;52.696;6.186;2023-05-16T03:39:30;7.60;99.90
52543;DHT22;38449;52.696;6.186;2023-05-16T03:41:56;7.60;99.90
52543;DHT22;38449;52.696;6.186;2023-05-16T03:44:23;7.50;99.90
52543;DHT22;38449;52.696;6.186;2023-05-16T03:46:49;7.60;99.90
52543;DHT22;38449;52.696;6.186;2023-05-16T03:49:16;7.60;99.90
52543;DHT22;38449;52.696;6.186;2023-05-16T03:51:42;7.60;99.90
52543;DHT22;38449;52.696;6.186;2023-05-16T03:54:27;7.60;99.90
52543;DHT22;38449;52.696;6.186;2023-05-16T03:56:53;7.60;99.90
52543;DHT22;38449;52.696;6.186;2023-05-16T03:59:22;7.50;99.90
52543;DHT22;38449;52.696;6.186;2023-05-16T04:01:49;7.60;99.90
52543;DHT22;38449;52.696;6.186;2023-05-16T04:04:15;7.50;99.90
52543;DHT22;38449;52.696;6.186;2023-05-16T04:06:42;7.50;99.90
52543;DHT22;38449;52.696;6.186;2023-05-16T04:09:11;7.50;99.90
52543;DHT22;38449;52.696;6.186;2023-05-16T04:11:39;7.60;99.90
52543;DHT22;38449;52.696;6.186;2023-05-16T04:14:06;7.60;99.90
52543;DHT22;38449;52.696;6.186;2023-05-16T04:16:32;7.60;99.90
52543;DHT22;38449;52.696;6.186;2023-05-16T04:18:58;7.60;99.90
52543;DHT22;38449;52.696;6.186;2023-05-16T04:21:25;7.60;99.90
52543;DHT22;38449;52.696;6.186;2023-05-16T04:23:52;7.70;99.90
52543;DHT22;38449;52.696;6.186;2023-05-16T04:26:19;7.70;99.90
52543;DHT22;38449;52.696;6.186;2023-05-16T04:28:47;7.70;99.90
52543;DHT22;38449;52.696;6.186;2023-05-16T04:31:14;7.80;99.90
52543;DHT22;38449;52.696;6.186;2023-05-16T04:33:42;7.80;99.90
52543;DHT22;38449;52.696;6.186;2023-05-16T04:36:09;7.90;99.90
52543;DHT22;38449;52.696;6.186;2023-05-16T04:38:36;8.00;99.90
52543;DHT22;38449;52.696;6.186;2023-05-16T04:41:03;8.00;99.90
52543;DHT22;38449;52.696;6.186;2023-05-16T04:43:31;8.10;99.90
52543;DHT22;38449;52.696;6.186;2023-05-16T04:45:57;8.20;99.90
52543;DHT22;38449;52.696;6.186;2023-05-16T04:48:24;8.30;99.90
52543;DHT22;38449;52.696;6.186;2023-05-16T04:50:50;8.60;99.90
52543;DHT22;38449;52.696;6.186;2023-05-16T04:53:17;8.90;99.90
52543;DHT22;38449;52.696;6.186;2023-05-16T04:55:43;9.40;99.90
52543;DHT22;38449;52.696;6.186;2023-05-16T04:58:09;10.00;99.90
52543;DHT22;38449;52.696;6.186;2023-05-16T05:00:36;10.60;99.90
52543;DHT22;38449;52.696;6.186;2023-05-16T05:03:04;11.10;99.90
52543;DHT22;38449;52.696;6.186;2023-05-16T05:05:31;11.70;99.90
52543;DHT22;38449;52.696;6.186;2023-05-16T05:07:57;12.10;99.90
52543;DHT22;38449;52.696;6.186;2023-05-16T05:10:24;12.60;99.90
52543;DHT22;38449;52.696;6.186;2023-05-16T05:12:52;13.00;99.90
52543;DHT22;38449;52.696;6.186;2023-05-16T05:15:19;13.30;99.90
52543;DHT22;38449;52.696;6.186;2023-05-16T05:17:45;13.50;99.90
52543;DHT22;38449;52.696;6.186;2023-05-16T05:20:12;13.70;99.90
52543;DHT22;38449;52.696;6.186;2023-05-16T05:22:38;14.00;99.90
52543;DHT22;38449;52.696;6.186;2023-05-16T05:25:05;14.00;99.90
52543;DHT22;38449;52.696;6.186;2023-05-16T05:27:31;14.10;99.90
52543;DHT22;38449;52.696;6.186;2023-05-16T05:29:58;14.30;99.90
52543;DHT22;38449;52.696;6.186;2023-05-16T05:32:25;14.60;99.90
52543;DHT22;38449;52.696;6.186;2023-05-16T05:34:51;15.30;99.90
52543;DHT22;38449;52.696;6.186;2023-05-16T05:37:18;15.20;99.90
52543;DHT22;38449;52.696;6.186;2023-05-16T05:39:44;15.30;99.90
52543;DHT22;38449;52.696;6.186;2023-05-16T05:42:11;15.60;99.90
52543;DHT22;38449;52.696;6.186;2023-05-16T05:44:37;15.90;99.90
52543;DHT22;38449;52.696;6.186;2023-05-16T05:47:05;15.90;99.90
52543;DHT22;38449;52.696;6.186;2023-05-16T05:49:32;16.20;99.90
52543;DHT22;38449;52.696;6.186;2023-05-16T05:51:58;16.20;99.90
52543;DHT22;38449;52.696;6.186;2023-05-16T05:54:25;16.00;99.90
52543;DHT22;38449;52.696;6.186;2023-05-16T05:56:51;16.20;99.90
52543;DHT22;38449;52.696;6.186;2023-05-16T05:59:17;16.10;99.90
52543;DHT22;38449;52.696;6.186;2023-05-16T06:01:43;15.80;99.90
52543;DHT22;38449;52.696;6.186;2023-05-16T06:04:10;16.00;99.90
52543;DHT22;38449;52.696;6.186;2023-05-16T06:06:37;15.90;99.90
52543;DHT22;38449;52.696;6.186;2023-05-16T06:09:05;16.50;99.90
52543;DHT22;38449;52.696;6.186;2023-05-16T06:11:32;16.60;99.90
52543;DHT22;38449;52.696;6.186;2023-05-16T06:13:58;16.90;99.90
52543;DHT22;38449;52.696;6.186;2023-05-16T06:16:24;17.40;99.90
52543;DHT22;38449;52.696;6.186;2023-05-16T06:18:51;17.40;99.90
52543;DHT22;38449;52.696;6.186;2023-05-16T06:21:17;16.90;99.90
52543;DHT22;38449;52.696;6.186;2023-05-16T06:23:43;17.40;99.90
52543;DHT22;38449;52.696;6.186;2023-05-16T06:26:10;17.40;99.90
52543;DHT22;38449;52.696;6.186;2023-05-16T06:28:36;17.50;99.90
52543;DHT22;38449;52.696;6.186;2023-05-16T06:31:02;17.60;99.90
52543;DHT22;38449;52.696;6.186;2023-05-16T06:33:28;17.20;99.90
52543;DHT22;38449;52.696;6.186;2023-05-16T06:35:57;16.40;99.90
52543;DHT22;38449;52.696;6.186;2023-05-16T06:38:24;15.70;99.90
52543;DHT22;38449;52.696;6.186;2023-05-16T06:40:50;15.50;99.90
52543;DHT22;38449;52.696;6.186;2023-05-16T06:43:16;16.10;99.90
52543;DHT22;38449;52.696;6.186;2023-05-16T06:45:46;16.50;99.90
52543;DHT22;38449;52.696;6.186;2023-05-16T06:48:13;16.10;99.90
52543;DHT22;38449;52.696;6.186;2023-05-16T06:50:49;16.70;99.90
52543;DHT22;38449;52.696;6.186;2023-05-16T06:53:17;15.70;99.90
52543;DHT22;38449;52.696;6.186;2023-05-16T06:55:44;14.90;99.90
52543;DHT22;38449;52.696;6.186;2023-05-16T06:58:10;14.60;99.90
52543;DHT22;38449;52.696;6.186;2023-05-16T07:00:37;13.90;99.90
52543;DHT22;38449;52.696;6.186;2023-05-16T07:03:03;13.30;99.90
52543;DHT22;38449;52.696;6.186;2023-05-16T07:05:30;13.50;99.90
52543;DHT22;38449;52.696;6.186;2023-05-16T07:07:56;14.00;99.90
52543;DHT22;38449;52.696;6.186;2023-05-16T07:10:22;13.80;99.90
52543;DHT22;38449;52.696;6.186;2023-05-16T07:12:48;13.70;99.90
52543;DHT22;38449;52.696;6.186;2023-05-16T07:15:15;13.90;99.90
52543;DHT22;38449;52.696;6.186;2023-05-16T07:17:41;14.30;99.90
52543;DHT22;38449;52.696;6.186;2023-05-16T07:20:08;14.20;99.90
52543;DHT22;38449;52.696;6.186;2023-05-16T07:22:39;14.30;99.90
52543;DHT22;38449;52.696;6.186;2023-05-16T07:25:06;14.20;99.90
52543;DHT22;38449;52.696;6.186;2023-05-16T07:27:38;14.20;99.90
52543;DHT22;38449;52.696;6.186;2023-05-16T07:30:10;14.30;99.90
52543;DHT22;38449;52.696;6.186;2023-05-16T07:32:37;14.30;99.90
52543;DHT22;38449;52.696;6.186;2023-05-16T07:35:03;14.30;99.90
52543;DHT22;38449;52.696;6.186;2023-05-16T07:37:30;14.00;99.90
52543;DHT22;38449;52.696;6.186;2023-05-16T07:39:56;14.20;99.90
52543;DHT22;38449;52.696;6.186;2023-05-16T07:42:23;14.60;99.90
52543;DHT22;38449;52.696;6.186;2023-05-16T07:44:49;14.60;99.90
52543;DHT22;38449;52.696;6.186;2023-05-16T07:47:15;14.80;99.90
52543;DHT22;38449;52.696;6.186;2023-05-16T07:49:42;14.60;99.90
52543;DHT22;38449;52.696;6.186;2023-05-16T07:52:08;14.80;99.90
52543;DHT22;38449;52.696;6.186;2023-05-16T07:54:35;14.20;99.90
52543;DHT22;38449;52.696;6.186;2023-05-16T07:57:01;13.90;99.90
52543;DHT22;38449;52.696;6.186;2023-05-16T07:59:28;13.90;99.90
52543;DHT22;38449;52.696;6.186;2023-05-16T08:01:54;13.70;99.90
52543;DHT22;38449;52.696;6.186;2023-05-16T08:04:21;13.90;99.90
52543;DHT22;38449;52.696;6.186;2023-05-16T08:06:48;13.90;99.90
52543;DHT22;38449;52.696;6.186;2023-05-16T08:09:14;14.10;99.90
52543;DHT22;38449;52.696;6.186;2023-05-16T08:11:40;14.20;99.90
52543;DHT22;38449;52.696;6.186;2023-05-16T08:14:10;14.40;99.90
52543;DHT22;38449;52.696;6.186;2023-05-16T08:16:36;14.60;99.90
52543;DHT22;38449;52.696;6.186;2023-05-16T08:19:03;14.60;99.90
52543;DHT22;38449;52.696;6.186;2023-05-16T08:21:29;14.70;99.90
52543;DHT22;38449;52.696;6.186;2023-05-16T08:23:57;14.70;99.90
52543;DHT22;38449;52.696;6.186;2023-05-16T08:26:23;14.80;99.90
52543;DHT22;38449;52.696;6.186;2023-05-16T08:28:50;14.90;99.90
52543;DHT22;38449;52.696;6.186;2023-05-16T08:31:16;15.10;99.90
52543;DHT22;38449;52.696;6.186;2023-05-16T08:33:42;15.10;99.00
52543;DHT22;38449;52.696;6.186;2023-05-16T08:36:09;15.30;99.10
52543;DHT22;38449;52.696;6.186;2023-05-16T08:38:35;15.30;98.80
52543;DHT22;38449;52.696;6.186;2023-05-16T08:41:02;15.50;98.20
52543;DHT22;38449;52.696;6.186;2023-05-16T08:43:28;14.60;99.90
52543;DHT22;38449;52.696;6.186;2023-05-16T08:45:55;14.30;99.90
52543;DHT22;38449;52.696;6.186;2023-05-16T08:48:22;13.90;99.90
52543;DHT22;38449;52.696;6.186;2023-05-16T08:50:49;13.80;99.90
52543;DHT22;38449;52.696;6.186;2023-05-16T08:53:21;13.70;99.90
52543;DHT22;38449;52.696;6.186;2023-05-16T08:55:48;13.90;99.90
52543;DHT22;38449;52.696;6.186;2023-05-16T08:58:16;13.80;99.90
52543;DHT22;38449;52.696;6.186;2023-05-16T09:00:43;14.00;99.90
52543;DHT22;38449;52.696;6.186;2023-05-16T09:03:09;14.00;99.90
52543;DHT22;38449;52.696;6.186;2023-05-16T09:05:36;14.00;99.90
52543;DHT22;38449;52.696;6.186;2023-05-16T09:08:03;14.00;99.90
52543;DHT22;38449;52.696;6.186;2023-05-16T09:10:29;14.00;99.90
52543;DHT22;38449;52.696;6.186;2023-05-16T09:12:55;14.40;99.90
52543;DHT22;38449;52.696;6.186;2023-05-16T09:15:22;14.60;99.90
52543;DHT22;38449;52.696;6.186;2023-05-16T09:17:48;14.80;99.90
52543;DHT22;38449;52.696;6.186;2023-05-16T09:20:19;14.60;99.90
52543;DHT22;38449;52.696;6.186;2023-05-16T09:22:57;14.60;99.90
52543;DHT22;38449;52.696;6.186;2023-05-16T09:25:25;14.80;99.90
52543;DHT22;38449;52.696;6.186;2023-05-16T09:27:56;14.40;99.90
52543;DHT22;38449;52.696;6.186;2023-05-16T09:30:35;14.40;99.90
52543;DHT22;38449;52.696;6.186;2023-05-16T09:33:02;14.80;99.90
52543;DHT22;38449;52.696;6.186;2023-05-16T09:35:33;14.90;99.90
52543;DHT22;38449;52.696;6.186;2023-05-16T09:37:59;14.90;99.90
52543;DHT22;38449;52.696;6.186;2023-05-16T09:40:25;14.80;99.90
52543;DHT22;38449;52.696;6.186;2023-05-16T09:43:14;15.00;99.90
52543;DHT22;38449;52.696;6.186;2023-05-16T09:45:45;14.90;99.90
52543;DHT22;38449;52.696;6.186;2023-05-16T09:48:13;14.80;99.40
52543;DHT22;38449;52.696;6.186;2023-05-16T09:50:40;14.90;99.90
52543;DHT22;38449;52.696;6.186;2023-05-16T09:53:12;15.10;99.90
52543;DHT22;38449;52.696;6.186;2023-05-16T09:55:38;15.10;99.90
52543;DHT22;38449;52.696;6.186;2023-05-16T09:58:04;14.80;99.90
52543;DHT22;38449;52.696;6.186;2023-05-16T10:00:32;14.90;99.90
52543;DHT22;38449;52.696;6.186;2023-05-16T10:03:01;14.80;99.90
52543;DHT22;38449;52.696;6.186;2023-05-16T10:05:29;14.70;99.90
52543;DHT22;38449;52.696;6.186;2023-05-16T10:07:56;14.50;99.90
52543;DHT22;38449;52.696;6.186;2023-05-16T10:10:23;14.40;99.90
52543;DHT22;38449;52.696;6.186;2023-05-16T10:12:50;14.30;99.90
52543;DHT22;38449;52.696;6.186;2023-05-16T10:15:18;14.10;99.90
52543;DHT22;38449;52.696;6.186;2023-05-16T10:17:49;14.20;99.90
52543;DHT22;38449;52.696;6.186;2023-05-16T10:20:19;14.40;99.90
52543;DHT22;38449;52.696;6.186;2023-05-16T10:22:46;14.70;99.90
52543;DHT22;38449;52.696;6.186;2023-05-16T10:25:25;14.70;99.90
52543;DHT22;38449;52.696;6.186;2023-05-16T10:27:54;14.70;99.90
52543;DHT22;38449;52.696;6.186;2023-05-16T10:30:21;14.90;99.90
52543;DHT22;38449;52.696;6.186;2023-05-16T10:32:49;15.20;99.90
52543;DHT22;38449;52.696;6.186;2023-05-16T10:35:17;15.10;99.90
52543;DHT22;38449;52.696;6.186;2023-05-16T10:37:44;15.10;99.90
52543;DHT22;38449;52.696;6.186;2023-05-16T10:40:12;15.30;99.90
52543;DHT22;38449;52.696;6.186;2023-05-16T10:42:38;15.30;99.90
52543;DHT22;38449;52.696;6.186;2023-05-16T10:45:18;15.20;99.90
52543;DHT22;38449;52.696;6.186;2023-05-16T10:50:41;14.90;99.90
52543;DHT22;38449;52.696;6.186;2023-05-16T11:01:17;14.70;99.90
52543;DHT22;38449;52.696;6.186;2023-05-16T11:06:50;15.10;99.90
52543;DHT22;38449;52.696;6.186;2023-05-16T11:09:24;15.30;99.70
52543;DHT22;38449;52.696;6.186;2023-05-16T11:14:34;15.50;99.70
52543;DHT22;38449;52.696;6.186;2023-05-16T11:17:13;15.60;99.40
52543;DHT22;38449;52.696;6.186;2023-05-16T11:19:51;15.50;99.90
52543;DHT22;38449;52.696;6.186;2023-05-16T11:22:31;15.60;99.70
52543;DHT22;38449;52.696;6.186;2023-05-16T11:25:05;15.60;99.90
52543;DHT22;38449;52.696;6.186;2023-05-16T11:27:35;16.00;98.00
52543;DHT22;38449;52.696;6.186;2023-05-16T11:32:36;15.50;98.60
52543;DHT22;38449;52.696;6.186;2023-05-16T11:35:04;15.20;99.60
52543;DHT22;38449;52.696;6.186;2023-05-16T11:37:30;15.10;99.90
52543;DHT22;38449;52.696;6.186;2023-05-16T11:40:00;14.50;99.90
52543;DHT22;38449;52.696;6.186;2023-05-16T11:42:33;14.30;99.90
52543;DHT22;38449;52.696;6.186;2023-05-16T11:45:10;13.90;99.90
52543;DHT22;38449;52.696;6.186;2023-05-16T11:47:38;13.60;99.90
52543;DHT22;38449;52.696;6.186;2023-05-16T11:50:21;13.50;99.90
52543;DHT22;38449;52.696;6.186;2023-05-16T11:52:52;13.50;99.90
52543;DHT22;38449;52.696;6.186;2023-05-16T11:55:22;13.70;99.90
52543;DHT22;38449;52.696;6.186;2023-05-16T11:57:53;13.70;99.90
52543;DHT22;38449;52.696;6.186;2023-05-16T12:00:21;14.00;99.90
52543;DHT22;38449;52.696;6.186;2023-05-16T12:02:50;14.20;99.90
52543;DHT22;38449;52.696;6.186;2023-05-16T12:05:17;14.40;99.90
52543;DHT22;38449;52.696;6.186;2023-05-16T12:07:44;14.30;99.90
52543;DHT22;38449;52.696;6.186;2023-05-16T12:10:12;14.40;99.90
52543;DHT22;38449;52.696;6.186;2023-05-16T12:12:42;14.50;99.90
52543;DHT22;38449;52.696;6.186;2023-05-16T12:15:10;14.60;99.90
52543;DHT22;38449;52.696;6.186;2023-05-16T12:17:37;14.60;99.90
52543;DHT22;38449;52.696;6.186;2023-05-16T12:20:04;14.50;99.90
52543;DHT22;38449;52.696;6.186;2023-05-16T12:22:32;14.30;99.90
52543;DHT22;38449;52.696;6.186;2023-05-16T12:24:59;14.30;99.90
52543;DHT22;38449;52.696;6.186;2023-05-16T12:27:25;14.30;99.90
52543;DHT22;38449;52.696;6.186;2023-05-16T12:29:57;14.20;99.90
52543;DHT22;38449;52.696;6.186;2023-05-16T12:32:23;14.30;99.90
52543;DHT22;38449;52.696;6.186;2023-05-16T12:34:50;14.20;99.90
52543;DHT22;38449;52.696;6.186;2023-05-16T12:37:17;14.40;99.90
52543;DHT22;38449;52.696;6.186;2023-05-16T12:39:44;14.70;99.90
52543;DHT22;38449;52.696;6.186;2023-05-16T12:42:13;15.00;99.90
52543;DHT22;38449;52.696;6.186;2023-05-16T12:44:40;15.00;99.90
52543;DHT22;38449;52.696;6.186;2023-05-16T12:47:12;15.00;99.90
52543;DHT22;38449;52.696;6.186;2023-05-16T12:49:46;14.90;99.90
52543;DHT22;38449;52.696;6.186;2023-05-16T12:52:20;14.90;99.90
52543;DHT22;38449;52.696;6.186;2023-05-16T12:54:47;15.10;99.90
52543;DHT22;38449;52.696;6.186;2023-05-16T12:57:14;15.30;99.90
52543;DHT22;38449;52.696;6.186;2023-05-16T12:59:40;15.20;99.90
52543;DHT22;38449;52.696;6.186;2023-05-16T13:02:06;15.00;99.90
52543;DHT22;38449;52.696;6.186;2023-05-16T13:04:34;14.80;99.90
52543;DHT22;38449;52.696;6.186;2023-05-16T13:07:02;14.70;99.90
52543;DHT22;38449;52.696;6.186;2023-05-16T13:09:29;14.60;99.90
52543;DHT22;38449;52.696;6.186;2023-05-16T13:11:55;14.50;99.90
52543;DHT22;38449;52.696;6.186;2023-05-16T13:14:22;14.40;99.90
52543;DHT22;38449;52.696;6.186;2023-05-16T13:16:48;14.60;99.90
52543;DHT22;38449;52.696;6.186;2023-05-16T13:19:14;14.70;99.90
52543;DHT22;38449;52.696;6.186;2023-05-16T13:21:40;14.70;99.90
52543;DHT22;38449;52.696;6.186;2023-05-16T13:24:07;14.60;99.90
52543;DHT22;38449;52.696;6.186;2023-05-16T13:26:33;14.50;99.90
52543;DHT22;38449;52.696;6.186;2023-05-16T13:28:59;14.50;99.90
52543;DHT22;38449;52.696;6.186;2023-05-16T13:31:27;14.60;99.90
52543;DHT22;38449;52.696;6.186;2023-05-16T13:33:53;14.60;99.90
52543;DHT22;38449;52.696;6.186;2023-05-16T13:36:19;14.90;99.90
52543;DHT22;38449;52.696;6.186;2023-05-16T13:38:46;15.00;99.90
52543;DHT22;38449;52.696;6.186;2023-05-16T13:41:12;15.10;99.90
52543;DHT22;38449;52.696;6.186;2023-05-16T13:43:39;15.30;99.90
52543;DHT22;38449;52.696;6.186;2023-05-16T13:46:05;15.50;99.90
52543;DHT22;38449;52.696;6.186;2023-05-16T13:48:31;15.50;99.20
52543;DHT22;38449;52.696;6.186;2023-05-16T13:50:58;15.30;99.20
52543;DHT22;38449;52.696;6.186;2023-05-16T13:53:24;15.20;99.80
52543;DHT22;38449;52.696;6.186;2023-05-16T13:55:51;15.10;99.90
52543;DHT22;38449;52.696;6.186;2023-05-16T13:58:17;15.20;99.90
52543;DHT22;38449;52.696;6.186;2023-05-16T14:00:43;15.10;99.90
52543;DHT22;38449;52.696;6.186;2023-05-16T14:03:10;15.00;99.90
52543;DHT22;38449;52.696;6.186;2023-05-16T14:05:36;14.90;99.90
52543;DHT22;38449;52.696;6.186;2023-05-16T14:08:02;14.70;99.90
52543;DHT22;38449;52.696;6.186;2023-05-16T14:10:29;14.60;99.90
52543;DHT22;38449;52.696;6.186;2023-05-16T14:12:56;14.40;99.90
52543;DHT22;38449;52.696;6.186;2023-05-16T14:15:22;14.40;99.90
52543;DHT22;38449;52.696;6.186;2023-05-16T14:17:49;14.20;99.90
52543;DHT22;38449;52.696;6.186;2023-05-16T14:20:15;14.10;99.90
52543;DHT22;38449;52.696;6.186;2023-05-16T14:22:42;14.10;99.90
52543;DHT22;38449;52.696;6.186;2023-05-16T14:25:08;14.00;99.90
52543;DHT22;38449;52.696;6.186;2023-05-16T14:27:34;13.90;99.90
52543;DHT22;38449;52.696;6.186;2023-05-16T14:30:01;13.90;99.90
52543;DHT22;38449;52.696;6.186;2023-05-16T14:32:27;14.10;99.90
52543;DHT22;38449;52.696;6.186;2023-05-16T14:34:53;14.30;99.90
52543;DHT22;38449;52.696;6.186;2023-05-16T14:37:20;14.50;99.90
52543;DHT22;38449;52.696;6.186;2023-05-16T14:39:46;14.50;99.90
52543;DHT22;38449;52.696;6.186;2023-05-16T14:42:15;14.50;99.90
52543;DHT22;38449;52.696;6.186;2023-05-16T14:44:41;14.40;99.90
52543;DHT22;38449;52.696;6.186;2023-05-16T14:47:07;14.50;99.90
52543;DHT22;38449;52.696;6.186;2023-05-16T14:49:33;14.40;99.90
52543;DHT22;38449;52.696;6.186;2023-05-16T14:52:00;14.40;99.90
52543;DHT22;38449;52.696;6.186;2023-05-16T14:54:26;14.40;99.90
52543;DHT22;38449;52.696;6.186;2023-05-16T14:56:53;14.40;99.90
52543;DHT22;38449;52.696;6.186;2023-05-16T14:59:20;14.40;99.90
52543;DHT22;38449;52.696;6.186;2023-05-16T15:01:46;14.40;99.90
52543;DHT22;38449;52.696;6.186;2023-05-16T15:04:13;14.50;99.90
52543;DHT22;38449;52.696;6.186;2023-05-16T15:06:39;14.50;99.90
52543;DHT22;38449;52.696;6.186;2023-05-16T15:09:06;14.60;99.90
52543;DHT22;38449;52.696;6.186;2023-05-16T15:11:32;14.60;99.90
52543;DHT22;38449;52.696;6.186;2023-05-16T15:13:58;14.50;99.90
52543;DHT22;38449;52.696;6.186;2023-05-16T15:16:25;14.50;99.90
52543;DHT22;38449;52.696;6.186;2023-05-16T15:18:52;14.60;99.90
52543;DHT22;38449;52.696;6.186;2023-05-16T15:21:18;14.50;99.90
52543;DHT22;38449;52.696;6.186;2023-05-16T15:23:44;14.60;99.90
52543;DHT22;38449;52.696;6.186;2023-05-16T15:26:11;14.80;99.90
52543;DHT22;38449;52.696;6.186;2023-05-16T15:28:37;14.90;99.90
52543;DHT22;38449;52.696;6.186;2023-05-16T15:31:04;14.90;99.90
52543;DHT22;38449;52.696;6.186;2023-05-16T15:33:30;15.00;99.90
52543;DHT22;38449;52.696;6.186;2023-05-16T15:35:56;15.10;99.90
52543;DHT22;38449;52.696;6.186;2023-05-16T15:38:23;15.20;99.90
52543;DHT22;38449;52.696;6.186;2023-05-16T15:40:49;15.10;99.90
52543;DHT22;38449;52.696;6.186;2023-05-16T15:43:15;15.00;99.90
52543;DHT22;38449;52.696;6.186;2023-05-16T15:45:43;15.00;99.90
52543;DHT22;38449;52.696;6.186;2023-05-16T15:48:09;15.10;99.90
52543;DHT22;38449;52.696;6.186;2023-05-16T15:50:35;15.30;99.90
52543;DHT22;38449;52.696;6.186;2023-05-16T15:53:02;15.10;99.90
52543;DHT22;38449;52.696;6.186;2023-05-16T15:55:29;14.80;99.90
52543;DHT22;38449;52.696;6.186;2023-05-16T15:57:56;14.60;99.90
52543;DHT22;38449;52.696;6.186;2023-05-16T16:00:24;14.40;99.90
52543;DHT22;38449;52.696;6.186;2023-05-16T16:02:51;14.10;99.90
52543;DHT22;38449;52.696;6.186;2023-05-16T16:05:20;13.70;99.90